x

Frying Pan Shoals, Nc Buoy (41013) Wave Buoy

4:50pm - Mon 25th May 2015 All times are EDT. -4 hours from GMT.

  • Sig Wave height 3.0ft
  • Swell Direction
  • Peak Period 7s
  • Average Period 5s
  • Wind
    11mph, 16mph gusts
  • Sea Temp 75°f
  • Air Temp 76°f
  • Sea Pressure 1026.4mb
  • Frying Pan Shoals, Nc Buoy
  • Frying Pan Shoals, Nc Buoy

More Historic Weather Station data

Upgrade to MSW Pro to gain access to the past 30 days of data for over 8000 Wavebouys and Weather Stations around the globe.

Join Pro

Comparision Forecast

View Surf forecast
   
Mon 05/25 4:50pm 3ft 7s 5s 11 16 mph 1026.4mb 75f 76f
3:50pm 2.5ft 6s 5s 9 13 mph 1026.9mb 75f 76f
2:50pm 3ft 6s 5s 9 11 mph 1027.2mb 75f 76f
1:50pm 3ft 7s 5s 9 11 mph 1027.7mb 75f 75f
12:50pm 3ft 6s 5s 11 13 mph 1028.1mb 74f 75f
11:50am 3ft 7s 5s 11 13 mph 1028.2mb 74f 75f
10:50am 3.5ft 6s 5s 11
mph
1028.2mb 74f 75f
9:50am 3.5ft 6s 5s 9 11 mph 1028.1mb 74f 75f
8:50am 3.5ft 6s 5s 9 11 mph 1028.2mb 74f 75f
7:50am 3.5ft 6s 5s 11 13 mph 1027.7mb 74f 74f
6:50am 3.5ft 7s 5s 9 11 mph 1027.6mb 74f 74f
5:50am 4ft 7s 5s 11 13 mph 1027.1mb 74f 74f
4:50am 4ft 7s 5s 11 13 mph 1026.8mb 74f 74f
3:50am 4ft 7s 5s 11 13 mph 1026.9mb 74f 74f
2:50am 4.5ft 7s 5s 11 13 mph 1026.9mb 74f 74f
1:50am 4ft 6s 5s 13 18 mph 1027.2mb 74f 74f
12:50am 4.5ft 7s 5s 13 16 mph 1027.5mb 73f 74f
Sun 05/24 11:50pm 4ft 6s 5s 13 16 mph 1027.9mb 73f 74f
10:50pm 4ft 7s 5s 13 16 mph 1028.2mb 73f 74f
9:50pm 4ft 6s 5s 13 16 mph 1027.8mb 74f 75f
8:50pm 4ft 6s 5s 16 20 mph 1027.3mb 74f 75f
7:50pm 4ft 6s 5s 16 18 mph 1027.4mb 74f 75f
6:50pm 4ft 6s 5s 13 18 mph 1027.6mb 74f 76f
5:50pm  -   -   -  13 16 mph 1027.9mb 74f 76f
4:50pm 4ft 6s 5s 13 16 mph 1028.2mb 74f 76f
3:50pm 4ft 6s 5s 13 18 mph 1028.5mb 74f 76f
2:50pm 3.5ft 6s 5s 16 18 mph 1028.8mb 74f 76f
1:50pm 4ft 6s 5s 16 18 mph 1029mb 74f 76f
12:50pm 4ft 6s 5s 13 16 mph 1029.8mb 73f 76f
11:50am 4ft 6s 5s 13 16 mph 1029.8mb 73f 75f
10:50am 4ft 6s 5s 16 18 mph 1029.7mb 73f 75f
9:50am 4.5ft 6s 5s 13 18 mph 1029.7mb 73f 75f
8:50am 4.5ft 6s 5s 13 16 mph 1029.5mb 73f 75f
7:50am 4ft 6s 5s 13 16 mph 1029.2mb 73f 75f
6:50am 4.5ft 6s 5s 13 16 mph 1028.9mb 73f 75f
5:50am 4.5ft 6s 5s 13 18 mph 1028.5mb 73f 75f
4:50am 4.5ft 6s 5s 18 22 mph 1028mb 73f 75f
3:50am 4ft 6s 5s 13
mph
1027.8mb 73f 75f
2:50am 4ft 6s 5s 13 18 mph 1027.9mb 73f 75f
1:50am 3.5ft 6s 5s 16 18 mph 1028mb 73f 75f
12:50am 3.5ft 5s 4s 16 20 mph 1028.3mb 74f 75f
Sat 05/23 11:50pm 3.5ft 6s 5s 16 20 mph 1028.7mb 74f 75f
10:50pm 3.5ft 6s 4s 16 18 mph 1029mb 74f 75f
9:50pm 3.5ft 5s 4s 13 16 mph 1028.9mb 74f 75f
8:50pm 3.5ft 6s 4s 16 18 mph 1028.5mb 74f 75f
7:50pm 4ft 5s 4s 18 20 mph 1028.7mb 74f 74f
6:50pm 4ft 5s 5s 18 20 mph 1028.5mb 74f 74f
5:50pm 3.5ft 6s 4s 16 20 mph 1028.7mb 74f 74f
4:50pm 3.5ft 5s 5s 16 20 mph 1028.6mb 74f 74f
3:50pm 3.5ft 5s 4s 16 18 mph 1029mb 74f 74f
2:50pm 3ft 5s 4s 16 20 mph 1029.3mb 74f 74f
1:50pm 3ft 4s 4s 16 18 mph 1029.4mb 74f 73f
12:50pm 3ft 5s 4s 16 18 mph 1029.5mb 74f 73f
11:50am 3ft 5s 4s 16 20 mph 1029.4mb 74f 73f
10:50am 2.5ft 4s 4s 16 18 mph 1029.2mb 73f 73f
9:50am 2.5ft 4s 4s 16 18 mph 1029.2mb 73f 73f
8:50am 2.5ft 4s 4s 13 18 mph 1028.7mb 73f 72f
7:50am 2.5ft 4s 4s 13 18 mph 1028mb 73f 72f
6:50am 2.5ft 4s 4s 16 18 mph 1027.3mb 73f 71f
5:50am 2.5ft 5s 4s 13 18 mph 1026.5mb 73f 71f
4:50am 2.5ft 8s 4s 16 18 mph 1025.6mb 74f 71f
3:50am 2.5ft 6s 4s 13 16 mph 1025.2mb 74f 71f
2:50am 2.5ft 6s 4s 13 18 mph 1025.2mb 74f 71f
1:50am 2.5ft 6s 4s 13 18 mph 1025.3mb 74f 71f
12:50am 2.5ft 6s 5s 13 18 mph 1025.4mb 74f 72f
Fri 05/22 11:50pm 2.5ft 5s 4s 11 16 mph 1025.1mb 74f 72f
10:50pm 2.5ft 6s 5s 11 13 mph 1024.9mb 74f 71f
9:50pm 2.5ft 6s 4s 11 13 mph 1024.3mb 74f 71f
8:50pm 2.5ft 5s 4s 11 13 mph 1023.8mb 74f 70f
7:50pm 2.5ft 6s 4s 9 11 mph 1023.1mb 74f 70f
6:50pm 3ft 6s 4s 11 13 mph 1022.5mb 74f 70f
5:50pm 3.5ft 5s 4s 11 16 mph 1022.5mb 74f 69f
4:50pm 3.5ft 5s 4s 11 16 mph 1022.6mb 74f 69f
3:50pm 3.5ft 5s 4s 16 18 mph 1022.3mb 74f 68f
2:50pm 4ft 5s 4s 16 20 mph 1022.2mb 74f 68f
1:50pm 4ft 5s 4s 16 20 mph 1021.8mb 74f 68f
12:50pm 4.5ft 5s 5s 18 22 mph 1021.5mb 74f 68f
11:50am 4.5ft 6s 5s 20 25 mph 1021.2mb 74f 68f
10:50am 5ft 5s 5s 20 25 mph 1020.5mb 74f 68f
9:50am 4.5ft 5s 4s 22 27 mph 1019.7mb 74f 68f
8:50am 5ft 5s 4s 22 27 mph 1019.5mb 74f 68f
7:50am 4ft 5s 4s 20 27 mph 1018.6mb 74f 68f
6:50am 4ft 5s 4s 22 27 mph 1017.5mb 74f 68f
5:50am 4ft 4s 4s 22 27 mph 1016.3mb 74f 69f
4:50am  -   -   -  22 27 mph 1015.6mb 75f 69f
3:50am 3.5ft 6s 4s 20 25 mph 1015mb 75f 71f
2:50am 3.5ft 6s 4s 18 22 mph 1014.6mb 75f 72f
1:50am 3.5ft 6s 4s 13 16 mph 1014.5mb 75f 73f
12:50am 3.5ft 6s 5s 11 13 mph 1013.9mb 75f 74f
Thu 05/21 11:50pm 3.5ft 6s 5s 13 16 mph 1012.9mb 75f 74f
10:50pm 4ft 6s 5s 16 18 mph 1012.3mb 75f 75f
9:50pm 4ft 6s 5s 11 13 mph 1012mb 75f 77f